Time;durP1;ratioP1;P1;durP2;ratioP2;P2;SDS_P1;SDS_P2;PMS_P1;PMS_P2;Temp;Humidity;BMP_temperature;BMP_pressure;BME280_temperature;BME280_humidity;BME280_pressure;Samples;Min_cycle;Max_cycle;Signal;HPM_P1;HPM_P2
2021/04/14 00:01:35;;;;;;;8.17;3.23;;;5.60;99.80;;;;;;4976274;28;20048;-66
2021/04/14 00:04:00;;;;;;;12.63;4.73;;;5.40;99.90;;;;;;4989953;28;21565;-65
2021/04/14 00:06:26;;;;;;;7.33;3.17;;;5.40;99.90;;;;;;4989255;28;20080;-66
2021/04/14 00:08:52;;;;;;;5.27;2.47;;;5.40;99.90;;;;;;4987968;28;20030;-66
2021/04/14 00:11:19;;;;;;;6.13;3.70;;;5.30;99.90;;;;;;4986963;28;20478;-66
2021/04/14 00:13:46;;;;;;;9.77;2.33;;;5.20;99.90;;;;;;4971476;28;20292;-66
2021/04/14 00:16:23;;;;;;;6.30;2.47;;;5.10;99.90;;;;;;4990558;28;20296;-66
2021/04/14 00:18:49;;;;;;;12.47;3.60;;;5.00;99.90;;;;;;4979258;28;20316;-66
2021/04/14 00:21:17;;;;;;;6.13;2.73;;;5.00;99.90;;;;;;4989438;28;20447;-66
2021/04/14 00:23:43;;;;;;;7.03;3.60;;;4.90;99.90;;;;;;4971954;28;20048;-66
2021/04/14 00:26:10;;;;;;;7.67;4.37;;;4.80;99.90;;;;;;4989060;28;20281;-67
2021/04/14 00:28:38;;;;;;;11.20;6.20;;;4.80;99.90;;;;;;4988464;28;20030;-66
2021/04/14 00:31:06;;;;;;;8.00;3.40;;;4.70;99.90;;;;;;4989462;28;20368;-66
2021/04/14 00:33:34;;;;;;;13.53;4.87;;;4.70;99.90;;;;;;4987478;28;20293;-66
2021/04/14 00:35:59;;;;;;;4.97;2.30;;;4.70;99.90;;;;;;4989521;28;20316;-66
2021/04/14 00:38:25;;;;;;;8.60;4.00;;;4.60;99.90;;;;;;4989195;28;20273;-65
2021/04/14 00:41:17;;;;;;;4.43;2.90;;;4.60;99.90;;;;;;4989841;28;20038;-66
2021/04/14 00:43:43;;;;;;;10.37;3.20;;;4.50;99.90;;;;;;4988587;28;20288;-66
2021/04/14 00:46:08;;;;;;;6.17;2.60;;;4.50;99.90;;;;;;4980009;28;20289;-66
2021/04/14 00:48:34;;;;;;;5.07;3.03;;;4.40;99.90;;;;;;4993093;28;20446;-66
2021/04/14 00:51:01;;;;;;;10.30;2.87;;;4.30;99.90;;;;;;4983530;28;20649;-66
2021/04/14 00:53:27;;;;;;;7.77;2.63;;;4.30;99.90;;;;;;4974980;28;20057;-66
2021/04/14 00:55:53;;;;;;;9.83;3.00;;;4.30;99.90;;;;;;4990844;28;20377;-65
2021/04/14 00:58:19;;;;;;;8.93;2.70;;;4.20;99.90;;;;;;4975586;28;20741;-65
2021/04/14 01:00:48;;;;;;;7.80;2.67;;;4.20;99.90;;;;;;4992516;28;20378;-66
2021/04/14 01:03:22;;;;;;;5.17;2.50;;;4.10;99.90;;;;;;4978446;28;20297;-66
2021/04/14 01:05:52;;;;;;;8.90;3.33;;;4.10;99.90;;;;;;4978911;28;20948;-66
2021/04/14 01:08:18;;;;;;;8.37;2.63;;;4.00;99.90;;;;;;4974908;28;20967;-66
2021/04/14 01:10:44;;;;;;;7.33;3.10;;;4.00;99.90;;;;;;4991542;28;20285;-65
2021/04/14 01:13:12;;;;;;;10.67;3.03;;;4.00;99.90;;;;;;4992184;28;20300;-66
2021/04/14 01:15:40;;;;;;;6.03;3.00;;;3.90;99.90;;;;;;4992527;28;20037;-65
2021/04/14 01:18:07;;;;;;;15.87;6.50;;;3.90;99.90;;;;;;4991901;28;20284;-66
2021/04/14 01:20:36;;;;;;;9.60;4.93;;;3.90;99.90;;;;;;4992653;28;21008;-65
2021/04/14 01:23:03;;;;;;;11.90;4.40;;;4.00;99.90;;;;;;4991582;28;20273;-65
2021/04/14 01:25:36;;;;;;;11.97;3.57;;;4.00;99.90;;;;;;4976240;28;20304;-65
2021/04/14 01:28:16;;;;;;;9.25;3.83;;;4.00;99.90;;;;;;4992058;28;20285;-65
2021/04/14 01:30:43;;;;;;;11.87;4.50;;;4.00;99.90;;;;;;4974274;28;20034;-65
2021/04/14 01:33:09;;;;;;;9.60;4.13;;;4.00;99.90;;;;;;4992503;28;20674;-65
2021/04/14 01:35:35;;;;;;;9.73;5.57;;;3.90;99.90;;;;;;4974234;28;20296;-66
2021/04/14 01:38:06;;;;;;;19.73;7.97;;;3.90;99.90;;;;;;4991474;28;20610;-67
2021/04/14 01:40:32;;;;;;;8.47;4.10;;;3.90;99.90;;;;;;4973491;28;20045;-67
2021/04/14 01:43:01;;;;;;;9.87;4.90;;;3.90;99.90;;;;;;4991532;28;20284;-67
2021/04/14 01:45:33;;;;;;;8.60;4.10;;;3.90;99.90;;;;;;4974010;28;20760;-66
2021/04/14 01:48:01;;;;;;;11.60;4.18;;;3.80;99.90;;;;;;4980766;28;20289;-67
2021/04/14 01:50:28;;;;;;;12.07;6.07;;;3.80;99.90;;;;;;4992153;28;20038;-66
2021/04/14 01:52:54;;;;;;;9.73;4.60;;;3.80;99.90;;;;;;4992078;28;20300;-68
2021/04/14 01:55:21;;;;;;;8.40;3.63;;;3.80;99.90;;;;;;4973732;28;20297;-65
2021/04/14 01:57:48;;;;;;;7.93;3.63;;;3.70;99.90;;;;;;4988625;28;20297;-65
2021/04/14 02:00:34;;;;;;;8.87;3.37;;;3.70;99.90;;;;;;4973671;28;20280;-65
2021/04/14 02:03:04;;;;;;;8.27;4.73;;;3.70;99.90;;;;;;4991056;28;20289;-65
2021/04/14 02:05:32;;;;;;;8.77;3.73;;;3.60;99.90;;;;;;4973605;28;20615;-65
2021/04/14 02:07:58;;;;;;;7.30;3.70;;;3.60;99.90;;;;;;4990263;28;20292;-65
2021/04/14 02:10:29;;;;;;;10.10;4.30;;;3.50;99.90;;;;;;4982142;28;20346;-65
2021/04/14 02:12:58;;;;;;;9.30;4.60;;;3.40;99.90;;;;;;4991182;28;20292;-65
2021/04/14 02:15:27;;;;;;;8.47;3.80;;;3.40;99.90;;;;;;4990547;28;20424;-66
2021/04/14 02:17:54;;;;;;;10.90;3.30;;;3.40;99.90;;;;;;4981651;28;20285;-66
2021/04/14 02:20:20;;;;;;;16.43;5.90;;;3.40;99.90;;;;;;4973790;28;20288;-66
2021/04/14 02:22:49;;;;;;;7.10;3.00;;;3.30;99.90;;;;;;4991662;28;20304;-66
2021/04/14 02:25:16;;;;;;;6.80;3.83;;;3.30;99.90;;;;;;4971534;28;20281;-66
2021/04/14 02:27:46;;;;;;;15.10;5.90;;;3.30;99.90;;;;;;4981784;28;20355;-66
2021/04/14 02:30:17;;;;;;;13.37;6.00;;;3.30;99.90;;;;;;4989610;28;20287;-65
2021/04/14 02:32:43;;;;;;;11.13;4.87;;;3.30;99.90;;;;;;4990519;28;20288;-65
2021/04/14 02:35:09;;;;;;;11.43;5.17;;;3.30;99.90;;;;;;4972402;28;20297;-65
2021/04/14 02:37:37;;;;;;;9.57;4.33;;;3.30;99.90;;;;;;4991229;28;20125;-65
2021/04/14 02:40:07;;;;;;;10.07;3.37;;;3.30;99.90;;;;;;4990570;28;20280;-65
2021/04/14 02:42:33;;;;;;;12.73;5.60;;;3.30;99.90;;;;;;4990907;28;20277;-65
2021/04/14 02:45:01;;;;;;;9.37;4.70;;;3.20;99.90;;;;;;4990432;28;20346;-66
2021/04/14 02:47:27;;;;;;;11.23;5.17;;;3.20;99.90;;;;;;4989184;28;20723;-67
2021/04/14 02:49:52;;;;;;;13.43;6.10;;;3.20;99.90;;;;;;4973630;28;20355;-66
2021/04/14 02:52:20;;;;;;;13.43;6.17;;;3.10;99.90;;;;;;4990505;28;20046;-66
2021/04/14 02:54:46;;;;;;;12.47;6.20;;;3.10;99.90;;;;;;4989430;28;20038;-66
2021/04/14 02:57:11;;;;;;;9.63;4.50;;;3.10;99.90;;;;;;4972552;28;20467;-66
2021/04/14 02:59:37;;;;;;;8.30;4.93;;;3.10;99.90;;;;;;4973026;28;20447;-65
2021/04/14 03:02:03;;;;;;;10.63;5.50;;;3.10;99.90;;;;;;4990433;28;20490;-65
2021/04/14 03:04:28;;;;;;;13.77;6.57;;;3.10;99.90;;;;;;4990172;28;20065;-65
2021/04/14 03:06:54;;;;;;;8.80;4.33;;;3.00;99.90;;;;;;4975459;28;21023;-65
2021/04/14 03:09:20;;;;;;;13.23;6.60;;;3.10;99.90;;;;;;4988635;28;20465;-65
2021/04/14 03:11:45;;;;;;;11.80;5.53;;;3.00;99.90;;;;;;4990575;28;20636;-65
2021/04/14 03:14:11;;;;;;;10.93;5.37;;;3.10;99.90;;;;;;4989761;28;20037;-65
2021/04/14 03:16:37;;;;;;;17.90;6.73;;;3.10;99.90;;;;;;4989925;28;20031;-64
2021/04/14 03:19:05;;;;;;;15.50;6.43;;;3.00;99.90;;;;;;4991284;28;20026;-65
2021/04/14 03:21:31;;;;;;;10.57;5.73;;;3.00;99.90;;;;;;4972704;28;21016;-65
2021/04/14 03:23:57;;;;;;;20.73;6.93;;;2.90;99.90;;;;;;4990360;28;20285;-65
2021/04/14 03:26:23;;;;;;;14.10;4.87;;;2.80;99.90;;;;;;4972394;28;20534;-65
2021/04/14 03:28:49;;;;;;;12.20;5.67;;;2.90;99.90;;;;;;4989844;28;20030;-65
2021/04/14 03:31:19;;;;;;;10.50;6.03;;;2.90;99.90;;;;;;4989627;28;20573;-65
2021/04/14 03:33:45;;;;;;;7.57;4.33;;;2.90;99.90;;;;;;4975768;28;20428;-65
2021/04/14 03:36:13;;;;;;;11.37;4.23;;;2.90;99.90;;;;;;4976558;28;20289;-65
2021/04/14 03:38:41;;;;;;;5.70;3.93;;;2.90;99.90;;;;;;4971231;28;20324;-66
2021/04/14 03:41:09;;;;;;;12.37;4.37;;;2.80;99.90;;;;;;4988251;28;20289;-65
2021/04/14 03:43:34;;;;;;;8.43;3.70;;;2.80;99.90;;;;;;4989329;28;20749;-66
2021/04/14 03:46:00;;;;;;;7.73;4.03;;;2.80;99.90;;;;;;4990059;28;20289;-66
2021/04/14 03:48:27;;;;;;;13.27;6.53;;;2.70;99.90;;;;;;4973031;28;20033;-65
2021/04/14 03:50:53;;;;;;;8.93;4.87;;;2.60;99.90;;;;;;4989514;28;20728;-65
2021/04/14 03:53:27;;;;;;;14.50;5.17;;;2.60;99.90;;;;;;4989855;28;20277;-66
2021/04/14 03:56:03;;;;;;;7.40;3.83;;;2.60;99.90;;;;;;4988654;28;20288;-66
2021/04/14 03:58:30;;;;;;;8.10;4.00;;;2.50;99.90;;;;;;4989419;28;20281;-65
2021/04/14 04:00:58;;;;;;;8.27;3.77;;;2.40;99.90;;;;;;4989805;28;20273;-65
2021/04/14 04:03:28;;;;;;;11.20;5.00;;;2.30;99.90;;;;;;4988890;28;20289;-64
2021/04/14 04:05:54;;;;;;;11.33;4.10;;;2.20;99.90;;;;;;4990013;28;20316;-64
2021/04/14 04:08:24;;;;;;;12.47;4.07;;;2.10;99.90;;;;;;4989762;28;20281;-65
2021/04/14 04:10:52;;;;;;;13.57;4.57;;;2.10;99.90;;;;;;4980442;28;21807;-65
2021/04/14 04:13:20;;;;;;;9.93;4.80;;;2.00;99.90;;;;;;4989281;28;20281;-66
2021/04/14 04:15:47;;;;;;;8.97;3.97;;;2.00;99.90;;;;;;4990103;28;20292;-65
2021/04/14 04:18:12;;;;;;;9.70;4.50;;;2.00;99.90;;;;;;4988922;28;20273;-64
2021/04/14 04:20:38;;;;;;;14.33;5.30;;;2.00;99.90;;;;;;4989096;28;20269;-66
2021/04/14 04:23:05;;;;;;;10.63;5.17;;;2.20;99.90;;;;;;4983033;28;20117;-64
2021/04/14 04:25:31;;;;;;;13.87;5.07;;;2.20;99.90;;;;;;4975479;28;20296;-64
2021/04/14 04:28:00;;;;;;;11.20;5.13;;;2.30;99.90;;;;;;4983913;28;20277;-64
2021/04/14 04:30:30;;;;;;;11.93;4.97;;;2.40;99.90;;;;;;4976572;28;20364;-64
2021/04/14 04:32:58;;;;;;;11.30;4.73;;;2.40;99.90;;;;;;4992863;28;20277;-64
2021/04/14 04:35:27;;;;;;;9.43;5.00;;;2.40;99.90;;;;;;4993427;28;21181;-64
2021/04/14 04:37:55;;;;;;;10.67;4.93;;;2.40;99.90;;;;;;4975163;28;20368;-64
2021/04/14 04:40:23;;;;;;;10.20;4.50;;;2.50;99.90;;;;;;4974760;28;20327;-64
2021/04/14 04:42:49;;;;;;;13.37;5.67;;;2.50;99.90;;;;;;4975418;28;20297;-64
2021/04/14 04:45:17;;;;;;;9.87;5.10;;;2.60;99.90;;;;;;4992833;28;20288;-64
2021/04/14 04:47:43;;;;;;;12.73;4.60;;;2.60;99.90;;;;;;4993228;28;20037;-64
2021/04/14 04:50:13;;;;;;;8.77;4.80;;;2.60;99.90;;;;;;4991840;28;20295;-64
2021/04/14 04:52:40;;;;;;;11.23;5.20;;;2.50;99.90;;;;;;4992748;28;20042;-64
2021/04/14 04:55:07;;;;;;;8.77;3.77;;;2.50;99.90;;;;;;4993630;28;20311;-64
2021/04/14 04:57:33;;;;;;;10.10;4.40;;;2.60;99.90;;;;;;4975490;28;20278;-64
2021/04/14 04:59:58;;;;;;;9.53;4.73;;;2.60;99.90;;;;;;4992525;28;20304;-64
2021/04/14 05:02:24;;;;;;;10.37;4.07;;;2.70;99.90;;;;;;4991215;28;20034;-63
2021/04/14 05:04:55;;;;;;;11.33;5.20;;;2.70;99.90;;;;;;4993479;28;20069;-64
2021/04/14 05:07:21;;;;;;;11.17;4.90;;;2.70;99.90;;;;;;4975055;28;20050;-64
2021/04/14 05:09:47;;;;;;;7.07;4.23;;;2.70;99.90;;;;;;4991089;28;20308;-65
2021/04/14 05:12:12;;;;;;;13.07;5.60;;;2.80;99.90;;;;;;4978889;28;20052;-64
2021/04/14 05:14:38;;;;;;;18.60;6.07;;;2.90;99.90;;;;;;4990589;28;20042;-64
2021/04/14 05:17:04;;;;;;;10.40;5.33;;;2.90;99.90;;;;;;4991699;28;21557;-64
2021/04/14 05:19:30;;;;;;;15.93;6.03;;;3.00;99.90;;;;;;4978514;28;20033;-64
2021/04/14 05:21:56;;;;;;;11.10;5.60;;;3.00;99.90;;;;;;4992378;28;20340;-64
2021/04/14 05:24:24;;;;;;;11.83;5.57;;;3.00;99.90;;;;;;4991938;28;20034;-65
2021/04/14 05:26:55;;;;;;;12.63;6.93;;;3.00;99.90;;;;;;4990392;28;20285;-64
2021/04/14 05:29:20;;;;;;;8.83;5.53;;;3.20;99.90;;;;;;4991450;28;20297;-64
2021/04/14 05:31:47;;;;;;;17.07;7.37;;;3.20;99.90;;;;;;4992073;28;20276;-64
2021/04/14 05:34:13;;;;;;;11.43;6.07;;;3.30;99.90;;;;;;4991707;28;20034;-64
2021/04/14 05:36:38;;;;;;;13.43;6.10;;;3.40;99.90;;;;;;4975561;28;20681;-64
2021/04/14 05:39:05;;;;;;;11.53;6.07;;;3.50;99.90;;;;;;4979172;28;20034;-65
2021/04/14 05:41:30;;;;;;;14.57;6.27;;;3.60;99.90;;;;;;4972861;28;20029;-65
2021/04/14 05:44:01;;;;;;;16.60;7.60;;;3.60;99.90;;;;;;4991773;28;20760;-64
2021/04/14 05:46:26;;;;;;;12.63;6.80;;;3.70;99.90;;;;;;4973931;28;20030;-64
2021/04/14 05:48:52;;;;;;;17.00;7.50;;;3.70;99.90;;;;;;4991584;28;20316;-65
2021/04/14 05:51:27;;;;;;;12.10;6.90;;;3.70;99.90;;;;;;4978788;28;20605;-65
2021/04/14 05:53:53;;;;;;;14.27;6.50;;;3.90;99.90;;;;;;4991201;28;20029;-66
2021/04/14 05:56:21;;;;;;;13.80;7.60;;;3.90;99.90;;;;;;4972725;28;20335;-65
2021/04/14 05:58:47;;;;;;;13.33;7.33;;;3.80;99.90;;;;;;4991945;28;20160;-65
2021/04/14 06:01:19;;;;;;;10.30;6.73;;;3.90;99.90;;;;;;4987760;28;20292;-65
2021/04/14 06:03:47;;;;;;;11.30;7.30;;;4.10;99.90;;;;;;4972986;28;20285;-64
2021/04/14 06:06:12;;;;;;;15.00;6.77;;;4.20;99.90;;;;;;4991316;28;20376;-64
2021/04/14 06:08:39;;;;;;;16.10;5.73;;;4.20;99.90;;;;;;4992294;28;20277;-64
2021/04/14 06:11:09;;;;;;;14.60;6.50;;;4.30;99.90;;;;;;4973527;28;20026;-64
2021/04/14 06:13:35;;;;;;;11.83;6.27;;;4.30;99.90;;;;;;4990781;28;20277;-63
2021/04/14 06:16:05;;;;;;;12.13;6.63;;;4.40;99.90;;;;;;4991925;28;20285;-64
2021/04/14 06:18:31;;;;;;;11.63;6.07;;;4.50;99.90;;;;;;4975085;28;20324;-66
2021/04/14 06:20:57;;;;;;;17.57;6.47;;;4.50;99.90;;;;;;4973098;28;20359;-64
2021/04/14 06:23:25;;;;;;;10.83;6.13;;;4.60;99.90;;;;;;4988920;28;20117;-65
2021/04/14 06:28:24;;;;;;;13.75;6.20;;;4.80;99.90;;;;;;4989347;28;20284;-64
2021/04/14 06:30:50;;;;;;;18.73;6.10;;;4.90;99.90;;;;;;4990821;28;20045;-65
2021/04/14 06:33:20;;;;;;;12.43;6.70;;;5.00;99.90;;;;;;4977736;28;20880;-65
2021/04/14 06:35:47;;;;;;;10.90;6.70;;;4.90;99.90;;;;;;4979366;28;20575;-65
2021/04/14 06:38:20;;;;;;;17.30;6.93;;;4.90;99.90;;;;;;4991372;28;20323;-65
2021/04/14 06:43:42;;;;;;;13.53;6.80;;;5.10;99.90;;;;;;4990637;28;19929;-65
2021/04/14 06:46:18;;;;;;;15.27;6.87;;;5.10;99.90;;;;;;4989921;28;20889;-65
2021/04/14 06:49:10;;;;;;;11.43;7.07;;;5.00;99.90;;;;;;4972723;28;20278;-65
2021/04/14 06:52:05;;;;;;;18.83;8.23;;;5.00;99.90;;;;;;4987243;28;20285;-65
2021/04/14 06:54:51;;;;;;;16.80;7.23;;;5.00;99.90;;;;;;4972231;28;20331;-65
2021/04/14 06:57:34;;;;;;;17.10;7.60;;;5.00;99.90;;;;;;4972199;28;20405;-65
2021/04/14 07:00:35;;;;;;;16.17;6.55;;;5.10;99.90;;;;;;4975984;28;20285;-66
2021/04/14 07:03:08;;;;;;;16.07;7.60;;;5.10;99.90;;;;;;4982548;28;20150;-67
2021/04/14 07:05:37;;;;;;;11.87;7.53;;;5.30;99.90;;;;;;4990555;28;20776;-66
2021/04/14 07:08:09;;;;;;;10.73;6.97;;;5.20;99.90;;;;;;4990454;28;20285;-65
2021/04/14 07:10:39;;;;;;;14.43;7.68;;;5.40;99.90;;;;;;4981081;28;20288;-64
2021/04/14 07:13:08;;;;;;;20.07;7.13;;;5.60;99.90;;;;;;4990545;28;20034;-64
2021/04/14 07:15:36;;;;;;;13.90;7.03;;;5.60;99.90;;;;;;4976747;28;20769;-65
2021/04/14 07:18:26;;;;;;;13.37;6.37;;;5.70;99.90;;;;;;4976583;28;20281;-65
2021/04/14 07:20:52;;;;;;;19.17;6.80;;;5.80;99.90;;;;;;4972716;28;20375;-64
2021/04/14 07:23:48;;;;;;;14.00;7.83;;;6.00;99.90;;;;;;4971711;28;20052;-65
2021/04/14 07:26:22;;;;;;;15.17;8.27;;;6.20;99.90;;;;;;4972197;28;21866;-65
2021/04/14 07:29:22;;;;;;;14.53;9.07;;;6.30;99.70;;;;;;4990311;28;20049;-65
2021/04/14 07:31:56;;;;;;;15.97;7.93;;;6.30;99.90;;;;;;4972393;28;20080;-64
2021/04/14 07:34:37;;;;;;;16.67;7.97;;;6.40;99.70;;;;;;4972449;28;20040;-64
2021/04/14 07:37:34;;;;;;;15.77;8.20;;;6.30;98.50;;;;;;4971976;28;21440;-64
2021/04/14 07:40:03;;;;;;;20.17;8.13;;;6.30;98.90;;;;;;4989723;28;20041;-66
2021/04/14 07:42:33;;;;;;;18.37;8.63;;;6.40;98.90;;;;;;4989384;28;20049;-65
2021/04/14 07:45:25;;;;;;;17.20;6.80;;;6.60;99.70;;;;;;4973061;28;20157;-65
2021/04/14 07:47:55;;;;;;;12.85;6.70;;;7.00;97.30;;;;;;4973655;28;20030;-64
2021/04/14 07:50:31;;;;;;;12.43;5.73;;;7.20;95.90;;;;;;4973858;28;20808;-66
2021/04/14 07:52:59;;;;;;;11.13;5.10;;;7.30;95.40;;;;;;4990003;28;20042;-63
2021/04/14 07:55:36;;;;;;;8.53;4.83;;;7.40;91.90;;;;;;4989482;28;20036;-65
2021/04/14 07:58:15;;;;;;;9.23;6.30;;;7.50;92.90;;;;;;4992206;28;20135;-66
2021/04/14 08:00:44;;;;;;;11.10;6.17;;;7.80;92.40;;;;;;4992831;28;20045;-65
2021/04/14 08:03:15;;;;;;;10.77;5.60;;;8.20;92.40;;;;;;4978373;28;20041;-65
2021/04/14 08:05:41;;;;;;;9.90;4.30;;;8.50;88.10;;;;;;4993143;28;20984;-66
2021/04/14 08:08:32;;;;;;;7.93;3.87;;;8.60;83.70;;;;;;4992437;28;20068;-67
2021/04/14 08:11:03;;;;;;;5.13;2.67;;;8.70;83.90;;;;;;4993085;28;21902;-67
2021/04/14 08:13:39;;;;;;;9.43;4.50;;;8.60;79.50;;;;;;4992555;28;20030;-68
2021/04/14 08:16:39;;;;;;;14.73;4.90;;;8.50;83.10;;;;;;4993375;28;20045;-66
2021/04/14 08:19:21;;;;;;;12.77;4.50;;;8.50;82.70;;;;;;4992879;28;20030;-67
2021/04/14 08:22:11;;;;;;;16.15;5.70;;;8.70;84.00;;;;;;4992440;28;20022;-66
2021/04/14 08:24:53;;;;;;;10.00;4.90;;;8.80;83.60;;;;;;4993566;28;20038;-69
2021/04/14 08:27:32;;;;;;;8.55;5.05;;;9.00;83.30;;;;;;4993391;28;20031;-69
2021/04/14 08:30:07;;;;;;;10.27;4.47;;;9.40;78.70;;;;;;4976696;28;20385;-68
2021/04/14 08:32:44;;;;;;;11.37;4.30;;;9.70;74.20;;;;;;4976199;28;20045;-68
2021/04/14 08:35:32;;;;;;;16.33;5.27;;;9.80;70.30;;;;;;4982478;28;20034;-67
2021/04/14 08:38:07;;;;;;;15.40;4.90;;;9.40;74.80;;;;;;4993481;28;20034;-67
2021/04/14 08:40:54;;;;;;;14.40;5.40;;;9.40;75.40;;;;;;4979647;28;20088;-67
2021/04/14 08:43:42;;;;;;;12.60;5.17;;;9.50;74.50;;;;;;4979991;28;20806;-67
2021/04/14 08:46:23;;;;;;;11.90;5.10;;;9.60;73.60;;;;;;4979438;28;20061;-68
2021/04/14 08:48:56;;;;;;;16.30;5.87;;;9.30;73.40;;;;;;4992003;28;20044;-67
2021/04/14 08:51:23;;;;;;;9.40;5.95;;;9.00;76.50;;;;;;4993585;28;20030;-69
2021/04/14 08:53:55;;;;;;;12.03;6.37;;;8.80;76.20;;;;;;4992774;28;20045;-66
2021/04/14 08:56:21;;;;;;;7.70;4.43;;;8.50;78.80;;;;;;4983666;28;20604;-66
2021/04/14 08:58:48;;;;;;;16.93;5.43;;;8.40;77.90;;;;;;4978333;28;20126;-67
2021/04/14 09:01:16;;;;;;;13.87;5.63;;;8.30;78.90;;;;;;4991579;28;20034;-69
2021/04/14 09:03:48;;;;;;;11.03;5.17;;;8.10;86.30;;;;;;4991879;28;20046;-70
2021/04/14 09:06:17;;;;;;;12.73;4.53;;;7.90;89.50;;;;;;4992499;28;20030;-71
2021/04/14 09:08:47;;;;;;;10.73;5.07;;;7.80;90.80;;;;;;4993337;28;20030;-67
2021/04/14 09:11:42;;;;;;;14.40;7.83;;;7.50;91.70;;;;;;4974045;28;20420;-70
2021/04/14 09:14:29;;;;;;;12.90;8.30;;;7.40;91.40;;;;;;4990864;28;20042;-68
2021/04/14 09:17:19;;;;;;;16.93;9.00;;;7.20;87.80;;;;;;4974854;28;20457;-65
2021/04/14 09:19:50;;;;;;;18.77;9.27;;;7.20;89.80;;;;;;4967574;28;20042;-67
2021/04/14 09:22:16;;;;;;;12.67;8.83;;;7.10;88.40;;;;;;4992388;28;20958;-66
2021/04/14 09:24:51;;;;;;;14.70;9.90;;;7.10;87.40;;;;;;4991674;28;20026;-70
2021/04/14 09:27:42;;;;;;;18.70;10.23;;;7.10;89.60;;;;;;4990562;28;20038;-68
2021/04/14 09:30:18;;;;;;;20.10;10.40;;;7.20;90.50;;;;;;4991859;28;20038;-68
2021/04/14 09:33:11;;;;;;;17.67;11.07;;;7.30;90.50;;;;;;4975571;28;20045;-67
2021/04/14 09:35:54;;;;;;;19.20;10.73;;;7.40;90.20;;;;;;4991318;28;20042;-67
2021/04/14 09:38:23;;;;;;;;;;;7.60;85.20;;;;;;4991710;28;20123;-70
2021/04/14 09:40:52;;;;;;;16.97;10.57;;;7.70;80.80;;;;;;4989566;28;19917;-66
2021/04/14 09:43:30;;;;;;;16.50;10.50;;;7.80;79.80;;;;;;4990726;28;20076;-67
2021/04/14 09:46:08;;;;;;;15.13;10.27;;;7.80;75.80;;;;;;4992848;28;20064;-66
2021/04/14 09:48:48;;;;;;;12.53;8.67;;;8.00;79.80;;;;;;4978961;28;20601;-64
2021/04/14 09:51:31;;;;;;;14.77;8.93;;;8.00;80.10;;;;;;4990073;28;20384;-65
2021/04/14 09:54:05;;;;;;;17.87;8.93;;;8.10;84.30;;;;;;4989733;28;20130;-66
2021/04/14 09:56:34;;;;;;;17.63;9.00;;;8.20;83.10;;;;;;4990873;28;20034;-64
2021/04/14 09:59:18;;;;;;;16.60;9.90;;;8.10;84.30;;;;;;4982792;28;20033;-65
2021/04/14 10:01:49;;;;;;;16.93;9.87;;;8.10;84.50;;;;;;4991399;28;20062;-66
2021/04/14 10:04:23;;;;;;;16.20;9.80;;;8.10;85.00;;;;;;4976217;28;20479;-67
2021/04/14 10:06:57;;;;;;;16.93;10.37;;;8.20;84.50;;;;;;4972956;28;20042;-65
2021/04/14 10:09:29;;;;;;;16.00;11.10;;;8.50;80.40;;;;;;4991336;28;20034;-66
2021/04/14 10:12:07;;;;;;;15.53;10.40;;;8.70;77.30;;;;;;4991021;28;20038;-66
2021/04/14 10:14:50;;;;;;;38.03;14.10;;;8.80;75.60;;;;;;4991975;28;20034;-65
2021/04/14 10:17:21;;;;;;;21.50;10.53;;;9.00;74.70;;;;;;4991280;28;20406;-66
2021/04/14 10:19:59;;;;;;;23.03;10.80;;;8.90;71.70;;;;;;4974092;28;20038;-66
2021/04/14 10:22:37;;;;;;;14.87;9.53;;;9.00;73.70;;;;;;4972065;28;20133;-65
2021/04/14 10:25:09;;;;;;;16.30;10.83;;;9.20;71.70;;;;;;4971791;28;20089;-66
2021/04/14 10:27:36;;;;;;;16.15;10.57;;;9.10;70.50;;;;;;4981796;28;21852;-66
2021/04/14 10:30:09;;;;;;;15.73;9.67;;;9.30;69.30;;;;;;4989887;28;20044;-66
2021/04/14 10:32:38;;;;;;;15.97;9.43;;;9.30;66.80;;;;;;4989134;28;20041;-65
2021/04/14 10:35:16;;;;;;;14.20;10.17;;;9.30;67.10;;;;;;4991496;28;20034;-65
2021/04/14 10:37:50;;;;;;;14.33;10.00;;;9.10;66.00;;;;;;4973119;28;20034;-67
2021/04/14 10:40:40;;;;;;;14.17;9.90;;;9.20;64.30;;;;;;4973612;28;20038;-66
2021/04/14 10:43:13;;;;;;;14.40;9.30;;;9.20;64.40;;;;;;4989012;28;20092;-66
2021/04/14 10:46:12;;;;;;;14.50;9.30;;;9.40;62.70;;;;;;4989386;28;20034;-66
2021/04/14 10:48:42;;;;;;;16.03;9.50;;;9.70;61.50;;;;;;4989815;28;20637;-66
2021/04/14 10:51:43;;;;;;;14.13;8.87;;;9.60;59.60;;;;;;4990869;28;20023;-66
2021/04/14 10:54:11;;;;;;;13.70;9.17;;;9.40;59.30;;;;;;4985894;28;20052;-66
2021/04/14 10:56:37;;;;;;;19.13;9.43;;;9.70;59.70;;;;;;4991119;28;20105;-68
2021/04/14 10:59:11;;;;;;;13.93;9.23;;;9.60;58.20;;;;;;4971727;28;20094;-68
2021/04/14 11:01:40;;;;;;;13.23;8.70;;;9.60;58.90;;;;;;4988731;28;20030;-69
2021/04/14 11:04:12;;;;;;;12.73;9.17;;;9.60;58.00;;;;;;4990671;28;20046;-66
2021/04/14 11:06:44;;;;;;;15.60;9.60;;;9.60;57.80;;;;;;4989930;28;20045;-68
2021/04/14 11:09:11;;;;;;;;;;;9.60;55.80;;;;;;4990498;28;20132;-69
2021/04/14 11:11:41;;;;;;;11.63;8.17;;;9.80;56.90;;;;;;4991187;28;19917;-70
2021/04/14 11:14:10;;;;;;;11.63;8.10;;;10.10;56.70;;;;;;4971825;28;20123;-69
2021/04/14 11:16:40;;;;;;;14.93;9.07;;;10.30;54.70;;;;;;4975512;28;20040;-65
2021/04/14 11:19:23;;;;;;;13.07;8.33;;;10.60;53.20;;;;;;4979955;28;20034;-66
2021/04/14 11:22:01;;;;;;;14.53;9.00;;;10.70;53.60;;;;;;4988959;28;20034;-66
2021/04/14 11:24:27;;;;;;;12.30;7.83;;;10.40;52.90;;;;;;4990968;28;20037;-67
2021/04/14 11:27:00;;;;;;;11.60;8.57;;;10.60;52.40;;;;;;4990040;28;20473;-66
2021/04/14 11:29:33;;;;;;;15.43;7.47;;;10.80;51.40;;;;;;4990242;28;20038;-69
2021/04/14 11:32:11;;;;;;;10.60;7.00;;;11.10;52.10;;;;;;4971758;28;20042;-69
2021/04/14 11:34:39;;;;;;;13.67;7.93;;;11.20;50.00;;;;;;4955857;28;20045;-70
2021/04/14 11:37:23;;;;;;;11.93;8.43;;;10.80;50.00;;;;;;4988998;28;20030;-69
2021/04/14 11:39:52;;;;;;;12.57;8.80;;;10.80;50.90;;;;;;4989727;28;20064;-69
2021/04/14 11:42:21;;;;;;;11.07;6.60;;;10.60;51.70;;;;;;4971154;28;20096;-68
2021/04/14 11:44:56;;;;;;;10.97;7.43;;;10.70;49.80;;;;;;4989949;28;20045;-69
2021/04/14 11:47:34;;;;;;;11.07;7.33;;;10.80;49.80;;;;;;4970930;28;20088;-69
2021/04/14 11:50:28;;;;;;;11.27;7.30;;;10.80;49.50;;;;;;4988501;28;20038;-68
2021/04/14 11:52:57;;;;;;;11.90;7.57;;;11.00;49.60;;;;;;4984095;28;20053;-70
2021/04/14 11:55:22;;;;;;;12.03;7.30;;;11.30;49.10;;;;;;4990219;28;20114;-68
2021/04/14 11:58:01;;;;;;;13.07;7.67;;;11.70;48.30;;;;;;4990560;28;20426;-66
2021/04/14 12:00:35;;;;;;;8.87;6.50;;;11.90;48.80;;;;;;4980437;28;20081;-66
2021/04/14 12:03:25;;;;;;;9.60;7.50;;;12.10;48.30;;;;;;4989357;28;20062;-66
2021/04/14 12:05:59;;;;;;;7.57;5.93;;;12.40;49.20;;;;;;4989796;28;20045;-67
2021/04/14 12:08:26;;;;;;;13.57;7.07;;;12.10;48.60;;;;;;4990332;28;20038;-67
2021/04/14 12:10:57;;;;;;;16.30;6.63;;;11.30;51.00;;;;;;4990271;28;20457;-67
2021/04/14 12:13:27;;;;;;;13.75;6.32;;;11.00;51.20;;;;;;4988606;28;20046;-68
2021/04/14 12:15:52;;;;;;;10.63;6.77;;;10.60;51.90;;;;;;4989983;28;20039;-67
2021/04/14 12:18:19;;;;;;;11.00;6.40;;;10.20;52.10;;;;;;4975996;28;20592;-67
2021/04/14 12:20:50;;;;;;;9.27;6.57;;;9.50;54.50;;;;;;4990972;28;20034;-68
2021/04/14 12:23:18;;;;;;;9.97;6.77;;;9.30;56.40;;;;;;4988992;28;20603;-67
2021/04/14 12:25:44;;;;;;;13.50;7.30;;;9.30;54.40;;;;;;4989170;28;20030;-66
2021/04/14 12:28:12;;;;;;;12.00;7.20;;;9.20;53.60;;;;;;4973930;28;20439;-68
2021/04/14 12:30:38;;;;;;;13.87;7.17;;;9.40;53.80;;;;;;4975979;28;20149;-68
2021/04/14 12:33:06;;;;;;;11.47;6.90;;;9.70;53.60;;;;;;4988782;28;20038;-70
2021/04/14 12:35:31;;;;;;;10.53;7.20;;;10.10;53.90;;;;;;4990286;28;20034;-66
2021/04/14 12:37:58;;;;;;;9.30;6.90;;;10.90;52.20;;;;;;4989529;28;20037;-68
2021/04/14 12:40:24;;;;;;;10.27;6.43;;;12.20;49.90;;;;;;4976525;28;20031;-70
2021/04/14 12:42:52;;;;;;;12.17;6.47;;;13.80;47.80;;;;;;4989839;28;20463;-69
2021/04/14 12:45:44;;;;;;;9.47;6.60;;;15.60;44.80;;;;;;4983421;28;20558;-72
2021/04/14 12:48:24;;;;;;;10.60;7.78;;;17.10;43.90;;;;;;4991526;28;20043;-73
2021/04/14 12:51:18;;;;;;;8.70;6.75;;;18.20;42.30;;;;;;4983249;28;20030;-69
2021/04/14 12:53:56;;;;;;;11.48;7.60;;;19.30;39.90;;;;;;4993355;28;20035;-71
2021/04/14 12:56:32;;;;;;;9.00;6.43;;;20.60;39.10;;;;;;4975106;28;20026;-64
2021/04/14 12:59:08;;;;;;;10.60;6.80;;;20.50;35.80;;;;;;4992339;28;20033;-64
2021/04/14 13:01:35;;;;;;;9.02;6.38;;;18.30;38.50;;;;;;4993841;28;20042;-64
2021/04/14 13:04:17;;;;;;;8.25;6.20;;;18.10;39.20;;;;;;4976426;28;20041;-63
2021/04/14 13:07:16;;;;;;;10.60;7.60;;;17.20;40.00;;;;;;4991496;28;20121;-63
2021/04/14 13:09:44;;;;;;;8.82;6.82;;;17.90;40.80;;;;;;4940672;28;20312;-64
2021/04/14 13:12:21;;;;;;;8.45;6.50;;;18.40;51.60;;;;;;4992947;28;20094;-64
2021/04/14 13:14:52;;;;;;;10.95;7.18;;;18.10;39.60;;;;;;4976867;28;20889;-64
2021/04/14 13:17:22;;;;;;;10.98;6.38;;;17.30;40.30;;;;;;4992726;28;20105;-63